Latest Weather Observations for Nerriga

IDN60801

Issued at 6:52 pm EST Wednesday 19 September 2018 (issued every 10 minutes, with the page automatically refreshed every 10 minutes)

About weather observations | Map of weather stations | Latest weather observations for NSW | Other Formats
Station Details ID: 069128 Name: NERRIGA AWS Lat: -35.11 Lon: 150.08 Height: 622.0 m
Data from the previous 72 hours. | See also: Recent months at Nerriga
Date/Time
EST
Temp
°C
App
Temp
°C
Dew
Point
°C
Rel
Hum
%
Delta-T
°C
Wind Press
QNH
hPa
Press
MSL
hPa
Rain since
9am
mm
Dir  Spd
km/h
Gust
km/h
Spd
kts
Gust
kts
19/06:30pm 10.6 5.5 -5.0 33 5.8 W 13 20 7 11 1013.1 1013.0 0.0
19/06:00pm 11.4 5.5 -5.5 30 6.3 WNW 17 32 9 17 1012.6 1012.5 0.0
19/05:30pm 12.6 4.6 -5.9 27 6.9 WNW 28 39 15 21 1011.5 1011.4 0.0
19/05:00pm 13.4 5.4 -6.2 25 7.4 WNW 28 43 15 23 1010.9 1010.8 0.0
19/04:30pm 14.1 4.3 -6.7 23 7.8 W 37 50 20 27 1010.7 1010.6 0.0
19/04:00pm 15.0 5.2 -7.1 21 8.3 WNW 37 54 20 29 1010.7 1010.6 0.0
19/03:39pm 15.5 5.5 -8.7 18 8.8 WNW 37 56 20 30 1010.4 1010.2 0.0
19/03:30pm 15.3 4.4 -10.3 16 9.0 WNW 41 56 22 30 1010.0 1009.9 0.0
19/03:04pm 16.0 5.2 -9.0 17 9.1 WNW 41 59 22 32 1009.7 1009.6 0.0
19/03:00pm 16.2 5.1 -8.1 18 9.1 WNW 43 59 23 32 1009.7 1009.6 0.0
19/02:42pm 16.4 5.9 -6.0 21 8.8 WNW 41 61 22 33 1009.2 1009.1 0.0
19/02:30pm 17.5 8.3 -4.4 22 8.9 NW 35 52 19 28 1009.3 1009.2 0.0
19/02:00pm 17.4 8.3 -3.4 24 8.7 WNW 35 52 19 28 1009.1 1009.0 0.0
19/01:30pm 17.0 7.3 -2.6 26 8.3 WNW 39 63 21 34 1009.0 1008.8 0.0
19/01:14pm 17.4 6.7 -2.8 25 8.5 WNW 44 65 24 35 1008.8 1008.6 0.0
19/01:00pm 18.2 7.6 -2.1 25 8.8 NW 44 61 24 33 1009.0 1008.8 0.0
19/12:30pm 17.4 7.4 -1.3 28 8.1 WNW 41 61 22 33 1008.8 1008.6 0.0
19/12:01pm 17.6 7.8 -0.2 30 7.9 WNW 41 61 22 33 1008.6 1008.4 0.0
19/12:00pm 18.4 8.2 -0.4 28 8.4 WNW 43 61 23 33 1008.6 1008.4 0.0
19/11:37am 18.3 8.5 0.0 29 8.2 NW 41 59 22 32 1008.7 1008.5 0.0
19/11:30am 17.8 6.6 -0.9 28 8.2 NW 48 63 26 34 1008.6 1008.4 0.0
19/11:21am 18.3 9.1 -1.5 26 8.7 WNW 37 59 20 32 1008.5 1008.3 0.0
19/11:00am 18.7 8.3 -1.7 25 8.9 NW 43 59 23 32 1008.7 1008.5 0.0
19/10:40am 17.9 8.4 -3.5 23 8.9 WNW 37 56 20 30 1008.6 1008.4 0.0
19/10:30am 18.2 9.5 -3.8 22 9.2 NW 33 50 18 27 1008.8 1008.6 0.0
19/10:20am 18.2 7.7 -5.8 19 9.6 NW 41 61 22 33 1008.6 1008.4 0.0
19/10:00am 18.7 9.8 -5.4 19 9.8 NW 33 44 18 24 1008.6 1008.4 0.0
19/09:30am 18.6 8.2 -5.4 19 9.7 WNW 41 59 22 32 1008.5 1008.3 0.0
19/09:00am 19.5 8.6 -4.7 19 10.1 NW 44 65 24 35 1008.3 1008.2 0.0
19/08:52am 19.5 10.3 -4.7 19 10.0 NW 35 54 19 29 1008.2 1008.1 0.0
19/08:45am 19.1 10.9 -4.4 20 9.8 NW 30 46 16 25 1008.5 1008.3 0.0
19/08:30am 17.6 12.4 -2.6 25 8.6 NNW 15 28 8 15 1009.0 1008.8 0.0
19/08:00am 12.8 8.2 -1.1 38 5.8 NW 13 19 7 10 1009.8 1009.7 0.0
19/07:30am 10.9 6.5 -2.8 38 5.4 NW 11 13 6 7 1010.0 1009.9 0.0
19/07:00am 12.3 8.5 -3.9 32 6.4 NW 7 11 4 6 1010.0 1009.9 0.0
19/06:30am 8.7 5.3 -2.0 47 4.2 NW 6 9 3 5 1009.6 1009.5 0.0
19/06:00am 8.6 5.5 -2.3 46 4.3 NW 4 7 2 4 1009.5 1009.4 0.0
19/05:30am 10.2 6.6 -2.1 42 4.9 NW 7 9 4 5 1009.3 1009.2 0.0
19/05:00am 11.6 7.1 -3.3 35 5.9 NW 11 17 6 9 1009.5 1009.4 0.0
19/04:30am 9.8 5.7 -0.4 49 4.2 NW 11 13 6 7 1009.5 1009.4 0.0
19/04:00am 9.8 5.7 -0.1 50 4.1 NW 11 15 6 8 1009.8 1009.7 0.0
19/03:30am 9.6 6.0 0.5 53 3.8 NW 9 13 5 7 1009.6 1009.5 0.0
19/03:00am 9.8 5.9 0.9 54 3.8 NW 11 13 6 7 1009.4 1009.3 0.0
19/02:30am 10.1 6.5 0.4 51 4.1 NW 9 17 5 9 1009.7 1009.6 0.0
19/02:00am 11.5 7.0 0.0 45 4.9 NW 13 17 7 9 1010.0 1009.9 0.0
19/01:30am 11.3 6.5 0.4 47 4.7 NW 15 19 8 10 1010.5 1010.4 0.0
19/01:00am 11.5 7.2 0.9 48 4.6 NNW 13 17 7 9 1010.8 1010.7 0.0
19/12:30am 11.7 7.8 1.4 49 4.5 NW 11 15 6 8 1011.2 1011.1 0.0
19/12:00am 12.3 8.5 1.6 48 4.7 NW 11 15 6 8 1011.5 1011.4 0.0
 
Date/Time
EST
Temp
°C
App
Temp
°C
Dew
Point
°C
Rel
Hum
%
Delta-T
°C
Wind Press
QNH
hPa
Press
MSL
hPa
Rain since
9am
mm
Dir  Spd
km/h
Gust
km/h
Spd
kts
Gust
kts
18/11:30pm 12.4 8.2 1.4 47 4.9 NW 13 15 7 8 1011.7 1011.6 0.0
18/11:00pm 12.7 8.1 1.4 46 5.0 NW 15 19 8 10 1012.1 1012.0 0.0
18/10:30pm 13.6 8.6 1.3 43 5.5 NW 17 22 9 12 1012.4 1012.3 0.0
18/10:00pm 13.6 8.9 0.6 41 5.7 NW 15 20 8 11 1012.8 1012.7 0.0
18/09:30pm 13.9 9.1 0.5 40 5.9 NW 15 19 8 10 1013.0 1012.9 0.0
18/09:00pm 14.3 9.6 0.6 39 6.0 NW 15 19 8 10 1013.1 1013.0 0.0
18/08:30pm 14.4 9.2 0.3 38 6.2 NW 17 20 9 11 1013.2 1013.2 0.0
18/08:00pm 14.6 9.7 -0.7 35 6.6 NW 15 19 8 10 1013.2 1013.2 0.0
18/07:30pm 14.9 9.9 -1.2 33 6.9 NW 15 19 8 10 1013.1 1013.0 0.0
18/07:00pm 15.5 10.4 -2.0 30 7.4 NW 15 19 8 10 1013.1 1013.0 0.0
18/06:30pm 16.5 10.5 -3.0 26 8.1 NW 19 24 10 13 1013.1 1013.0 0.0
18/06:00pm 17.2 10.6 -3.5 24 8.6 NW 22 28 12 15 1012.9 1012.8 0.0
18/05:30pm 18.4 10.2 -4.3 21 9.4 NW 30 43 16 23 1012.8 1012.7 0.0
18/05:00pm 19.1 10.4 -3.7 21 9.6 NW 33 46 18 25 1012.6 1012.5 0.0
18/04:30pm 19.6 10.5 -3.3 21 9.8 NNW 35 48 19 26 1012.4 1012.3 0.0
18/04:00pm 19.8 10.8 -3.1 21 9.8 NW 35 52 19 28 1012.4 1012.3 0.0
18/03:30pm 20.1 11.0 -3.5 20 10.1 NW 35 52 19 28 1012.6 1012.5 0.0
18/03:00pm 20.4 11.3 -4.0 19 10.3 NW 35 48 19 26 1012.7 1012.6 0.0
18/02:43pm 20.5 11.7 -3.9 19 10.4 NW 33 54 18 29 1012.8 1012.7 0.0
18/02:30pm 20.5 11.4 -3.9 19 10.4 NNW 35 48 19 26 1013.1 1013.0 0.0
18/02:16pm 19.9 9.8 -5.8 17 10.5 WNW 39 57 21 31 1013.0 1012.9 0.0
18/02:00pm 20.5 10.4 -5.4 17 10.7 WNW 39 52 21 28 1013.4 1013.4 0.0
18/01:30pm 19.7 9.2 -6.0 17 10.4 WNW 41 56 22 30 1013.8 1013.7 0.0
18/01:00pm 19.4 9.0 -5.5 18 10.1 NW 41 54 22 29 1014.1 1014.0 0.0
18/12:40pm 19.3 10.6 -4.9 19 10.0 NW 32 50 17 27 1014.4 1014.3 0.0
18/12:30pm 19.6 10.5 -3.9 20 9.9 WNW 35 50 19 27 1014.9 1014.9 0.0
18/12:14pm 19.3 8.9 -4.9 19 10.0 WNW 41 61 22 33 1015.3 1015.2 0.0
18/12:00pm 18.7 8.6 -6.1 18 9.9 NW 39 52 21 28 1015.4 1015.3 0.0
18/11:30am 18.5 8.1 -4.9 20 9.6 WNW 41 61 22 33 1015.9 1015.8 0.0
18/11:02am 17.8 8.2 -4.2 22 9.1 WNW 37 57 20 31 1016.7 1016.7 0.0
18/11:00am 17.6 7.6 -5.0 21 9.1 WNW 39 57 21 31 1016.5 1016.5 0.0
18/10:36am 17.7 9.1 -2.5 25 8.6 WNW 33 56 18 30 1017.1 1017.0 0.0
18/10:30am 16.6 7.9 -3.0 26 8.2 WNW 33 48 18 26 1017.2 1017.1 0.0
18/10:00am 16.2 7.7 -3.3 26 8.0 WNW 32 43 17 23 1017.9 1017.9 0.0
18/09:30am 15.3 9.4 -0.9 33 7.0 NW 20 30 11 16 1018.3 1018.3 0.0
18/09:00am 12.5 8.5 0.6 44 5.2 WNW 11 20 6 11 1018.8 1018.8 0.0
18/08:30am 10.4 7.2 1.0 52 4.0 WNW 7 11 4 6 1019.1 1019.1 0.0
18/08:00am 8.0 6.4 2.5 68 2.4 CALM 0 0 0 0 1019.2 1019.2 0.0
18/07:30am 6.2 4.0 3.2 81 1.3 WNW 4 6 2 3 1019.3 1019.3 0.0
18/07:00am 4.9 3.4 2.9 87 0.8 CALM 0 0 0 0 1019.0 1019.0 0.0
18/06:30am 3.7 1.7 2.5 92 0.5 WNW 2 4 1 2 1018.8 1018.8 0.0
18/06:00am 3.1 1.1 2.1 93 0.4 WNW 2 2 1 1 1018.7 1018.6 0.0
18/05:30am 3.1 1.0 1.8 91 0.5 WNW 2 4 1 2 1018.7 1018.6 0.0
18/05:00am 4.6 2.4 3.1 90 0.6 WNW 4 6 2 3 1018.5 1018.5 0.0
18/04:30am 4.7 2.1 3.4 91 0.6 WNW 6 9 3 5 1018.2 1018.2 0.0
18/04:00am 5.0 2.4 3.0 87 0.9 WNW 6 7 3 4 1018.1 1018.1 0.0
18/03:30am 5.1 2.4 2.6 84 1.1 WNW 6 7 3 4 1018.1 1018.1 0.0
18/03:00am 5.2 2.3 2.6 83 1.1 WNW 7 9 4 5 1018.3 1018.3 0.0
18/02:30am 5.4 2.1 2.6 82 1.2 WNW 9 11 5 6 1018.5 1018.5 0.0
18/02:00am 5.8 2.6 3.1 83 1.2 WNW 9 11 5 6 1018.9 1018.9 0.0
18/01:30am 6.0 2.4 2.8 80 1.4 WNW 11 13 6 7 1019.3 1019.3 0.0
18/01:00am 6.2 2.9 2.7 78 1.5 WNW 9 9 5 5 1019.4 1019.4 0.0
18/12:30am 6.4 3.1 2.3 75 1.7 WNW 9 9 5 5 1019.6 1019.6 0.0
18/12:00am 6.9 3.5 2.0 71 2.1 WNW 9 9 5 5 1019.8 1019.8 0.0
 
Date/Time
EST
Temp
°C
App
Temp
°C
Dew
Point
°C
Rel
Hum
%
Delta-T
°C
Wind Press
QNH
hPa
Press
MSL
hPa
Rain since
9am
mm
Dir  Spd
km/h
Gust
km/h
Spd
kts
Gust
kts
17/11:30pm 7.2 4.1 1.5 67 2.4 WNW 7 9 4 5 1019.9 1019.9 0.0
17/11:00pm 7.4 4.4 2.3 70 2.2 WNW 7 9 4 5 1020.1 1020.2 0.0
17/10:30pm 7.7 4.8 2.4 69 2.3 WNW 7 11 4 6 1020.4 1020.4 0.0
17/10:00pm 7.9 5.1 2.2 67 2.4 WNW 6 9 3 5 1020.5 1020.5 0.0
17/09:30pm 7.1 4.1 0.5 63 2.7 WNW 6 7 3 4 1020.6 1020.6 0.0
17/09:00pm 7.1 4.4 0.1 61 2.8 WNW 4 7 2 4 1020.8 1020.8 0.0
17/08:30pm 6.9 4.3 0.8 65 2.5 WNW 4 6 2 3 1020.8 1020.8 0.0
17/08:00pm 7.6 5.1 1.7 66 2.5 WNW 4 6 2 3 1020.7 1020.7 0.0
17/07:30pm 8.6 5.7 2.4 65 2.7 WNW 7 9 4 5 1020.5 1020.5 0.0
17/07:00pm 9.3 6.1 0.7 55 3.6 WNW 7 9 4 5 1020.2 1020.3 0.0
17/06:30pm 11.4 7.3 -3.1 36 5.7 WNW 9 13 5 7 1020.0 1020.0 0.0
17/06:00pm 12.6 7.8 -2.8 34 6.2 WNW 13 22 7 12 1019.7 1019.7 0.0
17/05:30pm 13.8 7.9 -2.6 32 6.7 W 19 30 10 16 1019.5 1019.5 0.0
17/05:00pm 14.7 8.6 -2.7 30 7.2 WNW 20 28 11 15 1019.4 1019.4 0.0
17/04:30pm 15.6 9.1 -2.3 29 7.5 NW 22 35 12 19 1019.2 1019.2 0.0
17/04:00pm 16.4 10.2 -3.1 26 8.1 NW 20 26 11 14 1019.2 1019.2 0.0
17/03:30pm 16.6 10.0 -3.5 25 8.3 NW 22 32 12 17 1019.3 1019.3 0.0
17/03:00pm 16.6 8.7 -4.6 23 8.5 WNW 28 35 15 19 1019.4 1019.4 0.0
17/02:30pm 16.8 11.0 -5.0 22 8.7 NW 17 33 9 18 1019.7 1019.7 0.0
17/02:00pm 16.2 10.3 -5.5 22 8.5 WNW 17 26 9 14 1020.1 1020.2 0.0
17/01:30pm 15.2 10.2 -4.7 25 7.9 NNW 13 28 7 15 1020.5 1020.5 0.0
17/01:00pm 15.3 9.7 -3.1 28 7.5 NNW 17 30 9 16 1020.8 1020.8 0.0
17/12:30pm 13.8 8.9 -3.0 31 6.8 NNW 13 22 7 12 1021.3 1021.3 0.0
17/12:00pm 14.1 8.6 -2.3 32 6.8 N 17 24 9 13 1021.7 1021.8 0.0
17/11:30am 13.5 8.4 -2.0 34 6.4 N 15 26 8 14 1022.4 1022.4 0.0
17/11:00am 11.7 6.9 -2.5 37 5.7 N 13 20 7 11 1023.1 1023.2 0.0
17/10:30am 11.4 6.0 -1.4 41 5.3 N 17 20 9 11 1023.6 1023.7 0.0
17/10:00am 9.8 4.4 -1.0 47 4.4 N 17 24 9 13 1024.1 1024.1 0.0
17/09:30am 9.2 4.8 0.1 53 3.8 N 13 20 7 11 1024.4 1024.5 0.0
17/09:00am 7.8 3.9 1.0 62 2.8 E 11 17 6 9 1024.5 1024.6 0.0
17/08:30am 6.4 3.8 1.1 69 2.2 E 4 7 2 4 1024.5 1024.6 0.0
17/08:00am 4.2 2.0 1.2 81 1.2 E 2 6 1 3 1024.7 1024.8 0.0
17/07:30am 2.2 0.4 1.3 94 0.4 CALM 0 0 0 0 1024.3 1024.4 0.0
17/07:00am -0.3 -2.4 -1.1 94 0.3 CALM 0 0 0 0 1024.1 1024.1 0.0
17/06:30am -1.9 -4.2 -2.3 97 0.1 CALM 0 0 0 0 1023.8 1023.8 0.0
17/06:00am -2.6 -5.0 -3.1 96 0.1 CALM 0 0 0 0 1023.4 1023.5 0.0
17/05:30am -2.5 -5.3 -2.9 97 0.0 E 2 4 1 2 1023.4 1023.5 0.0
17/05:00am -2.7 -5.1 -3.4 95 0.1 CALM 0 0 0 0 1023.3 1023.4 0.0
17/04:30am -2.2 -4.5 -2.7 96 0.1 CALM 0 0 0 0 1023.0 1023.1 0.0
17/04:00am -2.1 -4.5 -2.8 95 0.1 CALM 0 0 0 0 1022.8 1022.9 0.0
17/03:30am -1.5 -4.2 -2.1 96 0.1 E 2 4 1 2 1022.5 1022.5 0.0
17/03:00am -1.4 -3.7 -2.0 96 0.1 CALM 0 4 0 2 1022.4 1022.4 0.0
17/02:30am -1.3 -4.3 -2.0 95 0.2 E 4 6 2 3 1022.6 1022.6 0.0
17/02:00am -0.5 -2.7 -1.2 95 0.2 CALM 0 0 0 0 1022.6 1022.6 0.0
17/01:30am 0.5 -1.5 -0.2 95 0.3 CALM 0 0 0 0 1022.7 1022.7 0.0
17/01:00am 0.6 -1.4 -0.3 94 0.3 CALM 0 0 0 0 1023.1 1023.2 0.0
17/12:30am 0.4 -1.7 -0.5 94 0.3 CALM 0 0 0 0 1023.1 1023.2 0.0
17/12:00am 0.7 -2.1 -0.3 93 0.4 E 4 4 2 2 1023.0 1023.1 0.0
 
Date/Time
EST
Temp
°C
App
Temp
°C
Dew
Point
°C
Rel
Hum
%
Delta-T
°C
Wind Press
QNH
hPa
Press
MSL
hPa
Rain since
9am
mm
Dir  Spd
km/h
Gust
km/h
Spd
kts
Gust
kts
16/11:30pm 0.7 -1.4 -0.7 90 0.5 CALM 0 4 0 2 1023.0 1023.1 0.0
16/11:00pm 1.0 -1.1 -0.9 87 0.7 CALM 0 0 0 0 1023.2 1023.3 0.0
16/10:30pm 1.5 -1.0 -1.1 83 1.0 E 2 2 1 1 1023.3 1023.4 0.0
16/10:00pm 3.1 0.4 0.2 81 1.1 E 4 4 2 2 1023.1 1023.2 0.0
16/09:30pm 2.8 -0.1 -1.4 74 1.6 E 4 4 2 2 1023.0 1023.1 0.0
16/09:00pm 3.7 1.1 -1.4 69 1.9 E 2 4 1 2 1022.8 1022.9 0.0
16/08:30pm 4.1 1.9 -1.7 66 2.2 CALM 0 6 0 3 1022.5 1022.5 0.0
16/08:00pm 4.8 2.3 -1.2 65 2.3 E 2 4 1 2 1022.2 1022.2 0.0
16/07:30pm 5.6 2.1 -1.1 62 2.6 E 7 9 4 5 1021.8 1021.9 0.0
16/07:00pm 6.0 1.8 -0.9 61 2.7 E 11 17 6 9 1021.4 1021.4 0.0

Other Formats:

Comma delimited format used in spreadsheet applications
http://www.bom.gov.au/fwo/IDN60801/IDN60801.94943.axf

JavaScript Object Notation format (JSON) in row-major order
http://www.bom.gov.au/fwo/IDN60801/IDN60801.94943.json